createdAt,value
2018-12-18T00:03:20.831Z,16.57
2018-12-18T00:08:15.518Z,14.93
2018-12-18T00:13:10.588Z,17.87
2018-12-18T00:18:05.235Z,14.40
2018-12-18T00:22:59.914Z,20.10
2018-12-18T00:27:54.639Z,17.53
2018-12-18T00:32:49.274Z,22.87
2018-12-18T00:37:43.928Z,17.60
2018-12-18T00:42:38.634Z,19.47
2018-12-18T00:47:33.332Z,13.37
2018-12-18T00:52:28.000Z,12.57
2018-12-18T00:57:22.696Z,12.20
2018-12-18T01:02:18.265Z,11.80
2018-12-18T01:07:13.197Z,12.80
2018-12-18T01:12:08.322Z,15.03
2018-12-18T01:17:03.229Z,12.30
2018-12-18T01:21:58.242Z,13.40
2018-12-18T01:26:54.974Z,15.13
2018-12-18T01:31:49.893Z,15.30
2018-12-18T01:36:44.677Z,17.13
2018-12-18T01:41:39.559Z,14.27
2018-12-18T01:46:34.315Z,10.93
2018-12-18T01:51:29.131Z,16.80
2018-12-18T01:56:23.825Z,13.00
2018-12-18T02:01:18.534Z,16.93
2018-12-18T02:06:13.608Z,14.37
2018-12-18T02:11:08.313Z,15.57
2018-12-18T02:16:03.057Z,19.87
2018-12-18T02:20:57.769Z,11.73
2018-12-18T02:25:52.443Z,12.77
2018-12-18T02:30:47.116Z,11.60
2018-12-18T02:35:41.796Z,12.97
2018-12-18T02:40:36.483Z,18.60
2018-12-18T02:45:31.426Z,12.83
2018-12-18T02:50:26.262Z,13.17
2018-12-18T02:55:21.010Z,12.53
2018-12-18T03:00:15.912Z,12.87
2018-12-18T03:05:10.590Z,12.53
2018-12-18T03:10:05.384Z,10.33
2018-12-18T03:15:00.049Z,8.90
2018-12-18T03:19:54.759Z,13.70
2018-12-18T03:24:49.422Z,13.37
2018-12-18T03:29:44.093Z,9.30
2018-12-18T03:34:38.768Z,14.50
2018-12-18T03:39:33.467Z,10.83
2018-12-18T03:44:28.142Z,14.97
2018-12-18T03:49:22.870Z,13.50
2018-12-18T03:54:17.575Z,13.50
2018-12-18T03:59:12.231Z,15.07
2018-12-18T04:04:06.940Z,10.73
2018-12-18T04:09:01.723Z,15.53
2018-12-18T04:13:56.383Z,12.00
2018-12-18T04:18:51.330Z,10.73
2018-12-18T04:23:46.067Z,10.47
2018-12-18T04:33:40.498Z,9.20
2018-12-18T04:38:35.183Z,10.70
2018-12-18T04:43:29.860Z,10.43
2018-12-18T04:48:24.544Z,9.33
2018-12-18T04:53:19.217Z,11.40
2018-12-18T04:58:13.944Z,9.33
2018-12-18T05:03:09.142Z,9.57
2018-12-18T05:08:03.809Z,9.67
2018-12-18T05:12:58.464Z,7.80
2018-12-18T05:17:53.107Z,12.60
2018-12-18T05:22:47.787Z,8.97
2018-12-18T05:27:42.481Z,13.73
2018-12-18T05:32:37.195Z,9.30
2018-12-18T05:37:31.938Z,12.63
2018-12-18T05:42:26.622Z,12.77
2018-12-18T05:47:21.302Z,11.90
2018-12-18T05:52:16.006Z,12.20
2018-12-18T05:57:10.681Z,17.50
2018-12-18T06:02:05.332Z,14.20
2018-12-18T06:06:59.967Z,13.37
2018-12-18T06:11:54.684Z,14.27
2018-12-18T06:16:49.362Z,15.17
2018-12-18T06:21:44.055Z,15.17
2018-12-18T06:26:38.730Z,15.47
2018-12-18T06:31:33.387Z,10.70
2018-12-18T06:36:28.087Z,18.20
2018-12-18T06:41:22.732Z,12.93
2018-12-18T06:46:17.411Z,13.57
2018-12-18T06:51:12.159Z,14.37
2018-12-18T06:56:06.856Z,14.23
2018-12-18T07:01:01.827Z,15.60
2018-12-18T07:05:56.492Z,13.13
2018-12-18T07:10:51.193Z,10.87
2018-12-18T07:15:46.168Z,17.53
2018-12-18T07:20:40.895Z,11.53
2018-12-18T07:25:35.559Z,12.83
2018-12-18T07:30:30.301Z,11.13
2018-12-18T07:35:24.985Z,13.90
2018-12-18T07:40:19.650Z,17.20
2018-12-18T07:45:14.308Z,7.43
2018-12-18T07:50:09.039Z,9.73
2018-12-18T07:55:03.721Z,10.53
2018-12-18T07:59:58.541Z,11.10
2018-12-18T08:04:53.252Z,10.07
2018-12-18T08:09:47.942Z,10.40
2018-12-18T08:14:42.864Z,8.73
2018-12-18T08:19:37.915Z,12.03
2018-12-18T08:24:32.632Z,8.60
2018-12-18T08:29:27.495Z,11.77
2018-12-18T08:34:22.201Z,9.13
2018-12-18T08:39:17.050Z,7.07
2018-12-18T08:44:11.771Z,9.93
2018-12-18T08:49:06.467Z,9.67
2018-12-18T08:54:01.324Z,8.70
2018-12-18T08:58:56.046Z,7.93
2018-12-18T09:03:50.803Z,8.03
2018-12-18T09:08:45.527Z,7.83
2018-12-18T09:13:40.255Z,7.37
2018-12-18T09:18:34.984Z,8.90
2018-12-18T09:23:29.663Z,8.80
2018-12-18T09:28:24.367Z,10.93
2018-12-18T09:33:19.073Z,8.83
2018-12-18T09:38:18.850Z,8.77
2018-12-18T09:43:18.654Z,9.87
2018-12-18T09:48:13.311Z,7.63
2018-12-18T09:53:08.198Z,6.40
2018-12-18T09:58:04.992Z,9.50
2018-12-18T10:02:59.701Z,8.73
2018-12-18T10:07:54.430Z,8.90
2018-12-18T10:12:54.057Z,9.67
2018-12-18T10:17:48.790Z,11.80
2018-12-18T10:22:43.454Z,10.67
2018-12-18T10:27:38.154Z,9.27
2018-12-18T10:32:32.910Z,8.90
2018-12-18T10:37:27.604Z,11.07
2018-12-18T10:42:22.337Z,7.47
2018-12-18T10:47:17.044Z,9.87
2018-12-18T10:52:11.762Z,6.97
2018-12-18T10:57:06.484Z,8.70
2018-12-18T11:02:04.588Z,10.00
2018-12-18T11:06:59.368Z,6.97
2018-12-18T11:11:54.075Z,7.20
2018-12-18T11:16:48.753Z,9.87
2018-12-18T11:21:43.401Z,8.13
2018-12-18T11:26:38.153Z,6.73
2018-12-18T11:31:32.833Z,13.10
2018-12-18T11:36:27.501Z,7.33
2018-12-18T11:41:22.209Z,10.40
2018-12-18T11:46:16.916Z,9.20
2018-12-18T11:51:11.633Z,6.57
2018-12-18T11:56:06.402Z,8.20
2018-12-18T12:01:01.736Z,10.17
2018-12-18T12:05:56.435Z,7.93
2018-12-18T12:10:51.123Z,10.10
2018-12-18T12:15:45.824Z,11.10
2018-12-18T12:20:40.500Z,9.60
2018-12-18T12:25:35.168Z,8.23
2018-12-18T12:30:29.835Z,10.17
2018-12-18T12:35:24.517Z,11.23
2018-12-18T12:40:19.182Z,6.70
2018-12-18T12:45:14.257Z,8.80
2018-12-18T12:50:09.056Z,6.20
2018-12-18T12:55:04.863Z,7.87
2018-12-18T12:59:59.647Z,5.33
2018-12-18T13:04:54.355Z,6.40
2018-12-18T13:09:51.188Z,13.40
2018-12-18T13:14:46.496Z,8.23
2018-12-18T13:19:41.762Z,6.10
2018-12-18T13:24:36.464Z,6.40
2018-12-18T13:29:32.218Z,8.07
2018-12-18T13:34:27.295Z,7.83
2018-12-18T13:39:22.507Z,4.97
2018-12-18T13:44:17.368Z,5.47
2018-12-18T13:49:12.338Z,10.90
2018-12-18T13:54:07.109Z,6.57
2018-12-18T13:59:02.246Z,8.53
2018-12-18T14:03:57.501Z,7.93
2018-12-18T14:08:52.800Z,7.70
2018-12-18T14:13:47.766Z,7.30
2018-12-18T14:18:43.860Z,7.67
2018-12-18T14:23:40.243Z,7.80
2018-12-18T14:28:35.583Z,8.30
2018-12-18T14:33:30.309Z,6.20
2018-12-18T14:38:25.778Z,8.40
2018-12-18T14:43:21.165Z,6.63
2018-12-18T14:48:16.384Z,8.43
2018-12-18T14:53:11.413Z,4.80
2018-12-18T14:58:07.633Z,6.50
2018-12-18T15:03:02.715Z,9.57
2018-12-18T15:07:57.431Z,8.13
2018-12-18T15:12:52.543Z,4.03
2018-12-18T15:17:48.032Z,6.33
2018-12-18T15:22:43.919Z,8.30
2018-12-18T15:27:39.630Z,7.73
2018-12-18T15:32:35.451Z,7.57
2018-12-18T15:37:32.481Z,8.97
2018-12-18T15:42:27.274Z,6.37
2018-12-18T15:47:21.946Z,6.50
2018-12-18T15:52:17.831Z,7.17
2018-12-18T15:57:12.686Z,11.27
2018-12-18T16:02:07.360Z,11.40
2018-12-18T16:07:02.039Z,6.83
2018-12-18T16:11:56.790Z,8.90
2018-12-18T16:16:51.572Z,6.13
2018-12-18T16:21:46.792Z,8.23
2018-12-18T16:26:41.490Z,6.33
2018-12-18T16:31:37.335Z,7.83
2018-12-18T16:36:32.046Z,7.87
2018-12-18T16:41:26.733Z,10.30
2018-12-18T16:46:21.428Z,8.30
2018-12-18T16:51:16.093Z,7.73
2018-12-18T16:56:10.789Z,6.50
2018-12-18T17:01:05.520Z,4.87
2018-12-18T17:06:00.224Z,6.83
2018-12-18T17:10:54.892Z,7.07
2018-12-18T17:15:49.606Z,5.93
2018-12-18T17:20:44.331Z,8.87
2018-12-18T17:25:38.982Z,8.93
2018-12-18T17:30:33.662Z,6.53
2018-12-18T17:35:28.400Z,11.43
2018-12-18T17:40:23.278Z,9.97
2018-12-18T17:45:18.007Z,15.27
2018-12-18T17:50:12.722Z,10.37
2018-12-18T17:55:07.607Z,11.17
2018-12-18T18:00:02.674Z,15.17
2018-12-18T18:04:57.378Z,15.50
2018-12-18T18:09:52.467Z,13.03
2018-12-18T18:14:47.175Z,16.50
2018-12-18T18:19:41.911Z,13.90
2018-12-18T18:24:36.665Z,12.17
2018-12-18T18:29:31.400Z,18.00
2018-12-18T18:34:26.241Z,15.13
2018-12-18T18:39:20.941Z,15.33
2018-12-18T18:44:15.641Z,15.63
2018-12-18T18:49:10.314Z,14.67
2018-12-18T18:54:05.145Z,18.87
2018-12-18T18:58:59.992Z,16.27
2018-12-18T19:03:55.110Z,15.43
2018-12-18T19:08:49.809Z,14.37
2018-12-18T19:13:44.524Z,14.93
2018-12-18T19:18:39.207Z,17.70
2018-12-18T19:23:34.052Z,14.03
2018-12-18T19:28:28.847Z,15.13
2018-12-18T19:33:23.503Z,17.37
2018-12-18T19:38:18.278Z,14.23
2018-12-18T19:43:12.946Z,15.03
2018-12-18T19:48:07.608Z,15.43
2018-12-18T19:53:02.387Z,12.77
2018-12-18T19:57:57.055Z,13.47
2018-12-18T20:02:51.750Z,16.50
2018-12-18T20:07:46.417Z,17.30
2018-12-18T20:12:41.147Z,15.73
2018-12-18T20:17:35.829Z,13.30
2018-12-18T20:22:31.253Z,12.87
2018-12-18T20:27:25.923Z,11.57
2018-12-18T20:32:20.627Z,12.97
2018-12-18T20:37:18.335Z,14.27
2018-12-18T20:42:13.156Z,16.07
2018-12-18T20:47:07.882Z,15.33
2018-12-18T20:52:02.572Z,12.30
2018-12-18T20:56:57.765Z,12.30
2018-12-18T21:01:52.468Z,12.37
2018-12-18T21:06:47.158Z,11.87
2018-12-18T21:11:41.889Z,12.87
2018-12-18T21:16:36.726Z,13.77
2018-12-18T21:21:31.445Z,11.67
2018-12-18T21:26:26.182Z,9.67
2018-12-18T21:31:21.055Z,14.70
2018-12-18T21:36:15.746Z,10.63
2018-12-18T21:41:10.413Z,10.53
2018-12-18T21:46:05.123Z,11.67
2018-12-18T21:50:59.913Z,11.53
2018-12-18T21:55:54.626Z,13.00
2018-12-18T22:00:49.383Z,9.33
2018-12-18T22:05:44.100Z,10.87
2018-12-18T22:10:38.869Z,10.43
2018-12-18T22:15:33.590Z,9.03
2018-12-18T22:20:28.306Z,7.53
2018-12-18T22:25:22.980Z,12.40
2018-12-18T22:30:18.111Z,7.47
2018-12-18T22:35:13.676Z,7.20
2018-12-18T22:40:09.389Z,10.17
2018-12-18T22:45:04.301Z,9.53
2018-12-18T22:49:59.008Z,8.97
2018-12-18T22:54:55.547Z,10.17
2018-12-18T22:59:50.343Z,9.63
2018-12-18T23:04:47.146Z,12.23
2018-12-18T23:09:43.640Z,8.37
2018-12-18T23:14:38.321Z,13.17
2018-12-18T23:19:33.433Z,5.97
2018-12-18T23:24:28.875Z,7.93
2018-12-18T23:29:25.080Z,8.17
2018-12-18T23:34:21.398Z,8.10
2018-12-18T23:39:20.471Z,7.07
2018-12-18T23:44:15.834Z,9.07
2018-12-18T23:49:11.126Z,7.33
2018-12-18T23:54:06.425Z,6.37
2018-12-18T23:59:01.107Z,7.20
